Time;durP1;ratioP1;P1;durP2;ratioP2;P2;SDS_P1;SDS_P2;PMS_P1;PMS_P2;Temp;Humidity;BMP_temperature;BMP_pressure;BME280_temperature;BME280_humidity;BME280_pressure;Samples;Min_cycle;Max_cycle;Signal;HPM_P1;HPM_P2
2022/04/28 00:00:58;;;;;;;3.70;2.37;;;;;;;;;;5076550;28;20224;-76
2022/04/28 00:03:26;;;;;;;3.20;2.63;;;;;;;;;;5071670;28;20234;-76
2022/04/28 00:05:54;;;;;;;3.93;3.10;;;;;;;;;;5067921;28;20222;-76
2022/04/28 00:08:22;;;;;;;3.77;2.73;;;;;;;;;;5070861;28;20198;-78
2022/04/28 00:10:50;;;;;;;2.70;2.43;;;;;;;;;;5076940;28;20284;-77
2022/04/28 00:13:20;;;;;;;3.40;3.10;;;;;;;;;;5079525;28;20632;-78
2022/04/28 00:15:48;;;;;;;4.20;2.57;;;;;;;;;;5076179;28;20229;-76
2022/04/28 00:18:16;;;;;;;4.20;2.70;;;;;;;;;;5076262;28;20246;-77
2022/04/28 00:20:44;;;;;;;4.10;2.67;;;;;;;;;;5076267;28;20279;-78
2022/04/28 00:23:12;;;;;;;3.17;2.73;;;;;;;;;;5078938;28;20233;-78
2022/04/28 00:25:40;;;;;;;3.00;2.70;;;;;;;;;;5073874;28;20352;-77
2022/04/28 00:28:08;;;;;;;3.70;3.30;;;;;;;;;;5069395;28;20249;-76
2022/04/28 00:30:37;;;;;;;4.00;2.77;;;;;;;;;;5074955;28;20218;-76
2022/04/28 00:33:11;;;;;;;2.97;2.70;;;;;;;;;;5078847;28;20228;-77
2022/04/28 00:35:39;;;;;;;3.17;2.87;;;;;;;;;;5075784;28;20229;-78
2022/04/28 00:38:07;;;;;;;2.90;2.70;;;;;;;;;;5075471;28;20203;-76
2022/04/28 00:40:35;;;;;;;2.57;2.37;;;;;;;;;;5075846;28;20222;-76
2022/04/28 00:45:47;;;;;;;3.27;2.73;;;;;;;;;;5078547;28;20213;-76
2022/04/28 00:51:01;;;;;;;3.20;2.90;;;;;;;;;;5075308;28;20655;-75
2022/04/28 00:53:30;;;;;;;4.17;3.10;;;;;;;;;;5070885;28;20206;-75
2022/04/28 00:55:58;;;;;;;3.67;2.97;;;;;;;;;;5072899;28;20791;-76
2022/04/28 00:58:27;;;;;;;3.00;2.67;;;;;;;;;;5078346;28;20490;-76
2022/04/28 01:00:57;;;;;;;3.07;2.77;;;;;;;;;;5071655;28;20230;-76
2022/04/28 01:03:30;;;;;;;2.97;2.73;;;;;;;;;;5074416;28;20262;-77
2022/04/28 01:05:58;;;;;;;4.07;3.20;;;;;;;;;;5075430;28;20214;-78
2022/04/28 01:08:27;;;;;;;3.27;2.97;;;;;;;;;;5077334;28;20680;-77
2022/04/28 01:10:56;;;;;;;4.13;3.10;;;;;;;;;;5076124;28;20596;-76
2022/04/28 01:13:24;;;;;;;6.10;3.20;;;;;;;;;;5068149;28;20731;-78
2022/04/28 01:15:53;;;;;;;3.40;2.27;;;;;;;;;;5068250;28;20218;-78
2022/04/28 01:18:22;;;;;;;3.03;2.83;;;;;;;;;;5073044;28;20580;-78
2022/04/28 01:20:50;;;;;;;3.17;2.97;;;;;;;;;;5073604;28;20222;-78
2022/04/28 01:23:20;;;;;;;3.20;2.90;;;;;;;;;;5074233;28;20206;-78
2022/04/28 01:25:48;;;;;;;3.03;2.80;;;;;;;;;;5075940;28;20284;-77
2022/04/28 01:28:16;;;;;;;3.33;2.43;;;;;;;;;;5074591;28;20249;-77
2022/04/28 01:30:43;;;;;;;3.43;2.67;;;;;;;;;;5074366;28;20641;-77
2022/04/28 01:33:11;;;;;;;4.43;3.17;;;;;;;;;;5071116;28;20206;-78
2022/04/28 01:35:39;;;;;;;4.50;4.10;;;;;;;;;;5076614;28;20256;-77
2022/04/28 01:38:07;;;;;;;2.80;2.57;;;;;;;;;;5074472;28;20230;-77
2022/04/28 01:40:37;;;;;;;4.27;3.10;;;;;;;;;;5068684;28;20230;-77
2022/04/28 01:43:05;;;;;;;5.03;3.13;;;;;;;;;;5068909;28;20230;-78
2022/04/28 01:45:32;;;;;;;5.60;3.70;;;;;;;;;;5073313;28;21786;-78
2022/04/28 01:48:01;;;;;;;3.57;3.10;;;;;;;;;;5071932;28;20194;-75
2022/04/28 01:50:29;;;;;;;3.33;3.03;;;;;;;;;;5077113;28;20288;-76
2022/04/28 01:55:43;;;;;;;3.57;3.07;;;;;;;;;;5076069;28;20254;-75
2022/04/28 01:58:11;;;;;;;6.10;3.17;;;;;;;;;;5074546;28;20681;-75
2022/04/28 02:00:39;;;;;;;3.53;3.23;;;;;;;;;;5073801;28;20199;-76
2022/04/28 02:03:08;;;;;;;3.40;3.10;;;;;;;;;;5077484;28;20257;-76
2022/04/28 02:05:36;;;;;;;5.70;3.10;;;;;;;;;;5073554;28;20237;-75
2022/04/28 02:08:05;;;;;;;3.23;2.90;;;;;;;;;;5071612;28;20227;-75
2022/04/28 02:10:33;;;;;;;3.20;3.00;;;;;;;;;;5068818;28;20654;-75
2022/04/28 02:13:02;;;;;;;3.40;3.10;;;;;;;;;;5073512;28;20241;-76
2022/04/28 02:15:30;;;;;;;3.93;3.40;;;;;;;;;;5076596;28;20225;-75
2022/04/28 02:17:58;;;;;;;3.53;3.20;;;;;;;;;;5075974;28;20206;-76
2022/04/28 02:20:27;;;;;;;3.53;2.87;;;;;;;;;;5067671;28;20209;-75
2022/04/28 02:22:55;;;;;;;6.60;3.77;;;;;;;;;;5072844;28;20693;-75
2022/04/28 02:25:23;;;;;;;5.23;3.47;;;;;;;;;;5073841;28;20261;-76
2022/04/28 02:27:51;;;;;;;3.73;3.43;;;;;;;;;;5071032;28;20230;-75
2022/04/28 02:30:20;;;;;;;4.30;3.43;;;;;;;;;;5076869;28;20206;-76
2022/04/28 02:35:34;;;;;;;4.53;3.63;;;;;;;;;;5073809;28;20279;-76
2022/04/28 02:38:02;;;;;;;3.73;3.10;;;;;;;;;;5073487;28;20229;-76
2022/04/28 02:40:30;;;;;;;4.33;3.57;;;;;;;;;;5076736;28;20731;-76
2022/04/28 02:42:58;;;;;;;5.60;3.73;;;;;;;;;;5076432;28;20226;-76
2022/04/28 02:45:49;;;;;;;6.93;4.23;;;;;;;;;;5069881;28;20626;-75
2022/04/28 02:48:18;;;;;;;4.90;4.10;;;;;;;;;;5073031;28;20678;-76
2022/04/28 02:50:46;;;;;;;5.03;3.60;;;;;;;;;;5076059;28;20225;-76
2022/04/28 02:53:14;;;;;;;4.13;3.77;;;;;;;;;;5074675;28;20238;-75
2022/04/28 02:55:43;;;;;;;5.03;3.60;;;;;;;;;;5066838;28;20280;-76
2022/04/28 02:58:11;;;;;;;4.37;3.67;;;;;;;;;;5073330;28;20202;-76
2022/04/28 03:00:39;;;;;;;7.03;4.07;;;;;;;;;;5073200;28;20202;-75
2022/04/28 03:03:07;;;;;;;4.37;3.33;;;;;;;;;;5072464;28;20732;-75
2022/04/28 03:10:46;;;;;;;4.73;3.27;;;;;;;;;;5075871;28;20222;-75
2022/04/28 03:11:16;;;;;;;4.50;3.50;;;;;;;;;;5074211;28;20267;-75
2022/04/28 03:13:44;;;;;;;4.77;3.80;;;;;;;;;;5080446;28;20723;-76
2022/04/28 03:16:12;;;;;;;4.47;4.07;;;;;;;;;;5076857;28;20266;-75
2022/04/28 03:18:40;;;;;;;5.30;4.37;;;;;;;;;;5077098;28;20222;-75
2022/04/28 03:21:10;;;;;;;4.77;3.80;;;;;;;;;;5080240;28;20229;-76
2022/04/28 03:23:38;;;;;;;6.20;4.07;;;;;;;;;;5077126;28;20225;-76
2022/04/28 03:26:06;;;;;;;4.53;3.87;;;;;;;;;;5077764;28;20309;-76
2022/04/28 03:28:36;;;;;;;6.57;3.93;;;;;;;;;;5071845;28;20206;-77
2022/04/28 03:31:04;;;;;;;7.13;3.40;;;;;;;;;;5072701;28;20257;-77
2022/04/28 03:33:32;;;;;;;5.57;4.27;;;;;;;;;;5074823;28;20589;-77
2022/04/28 03:36:01;;;;;;;4.70;3.97;;;;;;;;;;5077266;28;20222;-76
2022/04/28 03:38:30;;;;;;;5.77;4.10;;;;;;;;;;5073261;28;20287;-78
2022/04/28 03:40:58;;;;;;;4.77;3.63;;;;;;;;;;5075889;28;20221;-77
2022/04/28 03:43:26;;;;;;;7.13;4.07;;;;;;;;;;5076008;28;20247;-77
2022/04/28 03:45:56;;;;;;;5.57;3.97;;;;;;;;;;5073615;28;20229;-76
2022/04/28 03:48:24;;;;;;;4.47;3.90;;;;;;;;;;5069278;28;20728;-77
2022/04/28 03:50:52;;;;;;;5.30;4.37;;;;;;;;;;5069438;28;20202;-76
2022/04/28 03:53:20;;;;;;;5.47;3.97;;;;;;;;;;5071867;28;20199;-77
2022/04/28 03:55:49;;;;;;;4.50;3.90;;;;;;;;;;5071743;28;20231;-77
2022/04/28 03:58:17;;;;;;;4.80;3.97;;;;;;;;;;5070405;28;20249;-77
2022/04/28 04:00:49;;;;;;;4.83;4.33;;;;;;;;;;5075373;28;20206;-76
2022/04/28 04:03:17;;;;;;;7.57;4.10;;;;;;;;;;5074046;28;20236;-76
2022/04/28 04:05:45;;;;;;;5.57;4.37;;;;;;;;;;5073696;28;20297;-76
2022/04/28 04:08:13;;;;;;;4.50;3.70;;;;;;;;;;5070137;28;20723;-76
2022/04/28 04:10:41;;;;;;;4.97;3.70;;;;;;;;;;5070946;28;20198;-76
2022/04/28 04:13:11;;;;;;;4.07;3.60;;;;;;;;;;5074746;28;20273;-76
2022/04/28 04:15:39;;;;;;;4.80;4.27;;;;;;;;;;5071575;28;20218;-77
2022/04/28 04:18:08;;;;;;;5.57;4.53;;;;;;;;;;5069280;28;20285;-76
2022/04/28 04:20:36;;;;;;;4.87;4.17;;;;;;;;;;5067890;28;20227;-76
2022/04/28 04:23:05;;;;;;;5.57;3.80;;;;;;;;;;5070349;28;20191;-76
2022/04/28 04:25:33;;;;;;;5.90;4.40;;;;;;;;;;5073229;28;20214;-76
2022/04/28 04:28:01;;;;;;;4.57;3.90;;;;;;;;;;5072069;28;20540;-77
2022/04/28 04:33:17;;;;;;;5.50;4.43;;;;;;;;;;5076340;28;20705;-76
2022/04/28 04:35:45;;;;;;;5.90;5.30;;;;;;;;;;5069810;28;20218;-77
2022/04/28 04:38:13;;;;;;;6.43;5.50;;;;;;;;;;5068380;28;20248;-76
2022/04/28 04:40:47;;;;;;;5.60;5.00;;;;;;;;;;5073148;28;20284;-76
2022/04/28 04:43:15;;;;;;;6.47;5.27;;;;;;;;;;5070330;28;20228;-77
2022/04/28 04:45:45;;;;;;;8.93;5.90;;;;;;;;;;5070504;28;20221;-76
2022/04/28 04:48:13;;;;;;;7.23;5.67;;;;;;;;;;5068216;28;20210;-76
2022/04/28 04:50:41;;;;;;;7.07;5.60;;;;;;;;;;5069403;28;20203;-76
2022/04/28 04:53:09;;;;;;;6.93;5.30;;;;;;;;;;5069486;28;20255;-76
2022/04/28 04:55:37;;;;;;;7.47;5.63;;;;;;;;;;5069750;28;20250;-75
2022/04/28 04:58:06;;;;;;;5.53;4.93;;;;;;;;;;5069118;28;20209;-75
2022/04/28 05:00:34;;;;;;;5.93;5.27;;;;;;;;;;5069123;28;20203;-75
2022/04/28 05:03:05;;;;;;;6.37;4.80;;;;;;;;;;5024682;28;1282510;-76
2022/04/28 05:05:34;;;;;;;6.73;5.13;;;;;;;;;;5070552;28;20222;-76
2022/04/28 05:08:02;;;;;;;5.93;4.67;;;;;;;;;;5070584;28;20199;-76
2022/04/28 05:10:30;;;;;;;5.17;4.40;;;;;;;;;;5070516;28;20224;-76
2022/04/28 05:12:58;;;;;;;5.33;4.83;;;;;;;;;;5068000;28;20222;-76
2022/04/28 05:15:26;;;;;;;6.90;4.47;;;;;;;;;;5068193;28;20226;-76
2022/04/28 05:17:54;;;;;;;6.80;5.03;;;;;;;;;;5066818;28;20626;-68
2022/04/28 05:20:29;;;;;;;6.33;5.00;;;;;;;;;;5072233;28;20206;-70
2022/04/28 05:22:57;;;;;;;5.97;4.77;;;;;;;;;;5067605;28;20298;-70
2022/04/28 05:25:25;;;;;;;5.73;4.60;;;;;;;;;;5073404;28;20304;-70
2022/04/28 05:27:53;;;;;;;8.10;4.67;;;;;;;;;;5067444;28;20278;-67
2022/04/28 05:30:21;;;;;;;6.77;4.73;;;;;;;;;;5067852;28;20203;-69
2022/04/28 05:32:49;;;;;;;5.63;4.60;;;;;;;;;;5070694;28;20310;-69
2022/04/28 05:35:17;;;;;;;5.13;4.20;;;;;;;;;;5073830;28;20262;-69
2022/04/28 05:37:46;;;;;;;5.80;4.57;;;;;;;;;;5074161;28;20209;-69
2022/04/28 05:40:15;;;;;;;5.20;4.50;;;;;;;;;;5071459;28;20628;-69
2022/04/28 05:45:43;;;;;;;5.47;4.07;;;;;;;;;;5037872;28;20791;-69
2022/04/28 05:48:12;;;;;;;5.37;4.83;;;;;;;;;;5075494;28;20210;-68
2022/04/28 05:50:40;;;;;;;5.80;4.50;;;;;;;;;;5072560;28;20234;-68
2022/04/28 05:53:10;;;;;;;5.07;4.13;;;;;;;;;;5072924;28;20230;-68
2022/04/28 05:55:38;;;;;;;5.00;4.47;;;;;;;;;;5068256;28;20268;-69
2022/04/28 05:58:06;;;;;;;9.50;5.03;;;;;;;;;;5071143;28;20226;-69
2022/04/28 06:00:35;;;;;;;7.57;5.17;;;;;;;;;;5074481;28;20281;-69
2022/04/28 06:03:03;;;;;;;4.97;4.57;;;;;;;;;;5068084;28;20253;-70
2022/04/28 06:05:31;;;;;;;6.70;4.20;;;;;;;;;;5067876;28;20279;-69
2022/04/28 06:07:59;;;;;;;6.90;4.43;;;;;;;;;;5071001;28;20226;-69
2022/04/28 06:10:29;;;;;;;5.33;4.47;;;;;;;;;;5072860;28;20281;-70
2022/04/28 06:12:57;;;;;;;5.33;4.60;;;;;;;;;;5072609;28;20226;-69
2022/04/28 06:15:25;;;;;;;5.57;4.97;;;;;;;;;;5070441;28;20250;-71
2022/04/28 06:17:58;;;;;;;6.13;4.93;;;;;;;;;;5073834;28;20317;-69
2022/04/28 06:20:26;;;;;;;6.40;5.10;;;;;;;;;;5073018;28;20244;-70
2022/04/28 06:22:54;;;;;;;6.40;5.27;;;;;;;;;;5072119;28;20237;-69
2022/04/28 06:25:23;;;;;;;5.03;4.53;;;;;;;;;;5069296;28;20254;-68
2022/04/28 06:27:53;;;;;;;5.60;4.43;;;;;;;;;;5067876;28;20257;-70
2022/04/28 06:30:21;;;;;;;4.50;4.07;;;;;;;;;;5069775;28;20261;-74
2022/04/28 06:32:50;;;;;;;7.97;4.87;;;;;;;;;;5069497;28;20312;-74
2022/04/28 06:35:18;;;;;;;6.80;4.53;;;;;;;;;;5070746;28;20202;-73
2022/04/28 06:37:46;;;;;;;7.77;5.00;;;;;;;;;;5071072;28;20247;-75
2022/04/28 06:40:15;;;;;;;6.80;4.50;;;;;;;;;;5066442;28;20245;-74
2022/04/28 06:42:43;;;;;;;5.33;4.23;;;;;;;;;;5069728;28;20666;-74
2022/04/28 06:45:13;;;;;;;5.67;4.13;;;;;;;;;;5069907;28;20198;-75
2022/04/28 06:47:41;;;;;;;5.43;4.90;;;;;;;;;;5068298;28;20290;-74
2022/04/28 06:50:10;;;;;;;6.23;4.30;;;;;;;;;;5068466;28;20230;-74
2022/04/28 06:52:38;;;;;;;3.67;3.37;;;;;;;;;;5065235;28;20203;-74
2022/04/28 06:55:07;;;;;;;6.60;4.47;;;;;;;;;;5067905;28;20209;-74
2022/04/28 06:57:35;;;;;;;6.20;4.00;;;;;;;;;;5069181;28;20202;-73
2022/04/28 07:00:04;;;;;;;7.90;4.07;;;;;;;;;;5066867;28;20689;-74
2022/04/28 07:02:33;;;;;;;3.70;3.37;;;;;;;;;;5068881;28;20269;-73
2022/04/28 07:05:01;;;;;;;5.03;4.57;;;;;;;;;;5071056;28;20277;-74
2022/04/28 07:07:30;;;;;;;5.33;4.03;;;;;;;;;;5067277;28;20238;-74
2022/04/28 07:09:57;;;;;;;5.00;4.33;;;;;;;;;;5073898;28;20198;-72
2022/04/28 07:12:33;;;;;;;4.83;3.70;;;;;;;;;;5068646;28;20206;-72
2022/04/28 07:15:02;;;;;;;4.20;3.80;;;;;;;;;;5065386;28;20254;-71
2022/04/28 07:17:30;;;;;;;7.13;3.80;;;;;;;;;;5062469;28;20230;-72
2022/04/28 07:19:59;;;;;;;6.83;4.57;;;;;;;;;;5073905;28;20230;-68
2022/04/28 07:22:27;;;;;;;6.40;3.83;;;;;;;;;;5066713;28;20237;-69
2022/04/28 07:24:55;;;;;;;4.73;3.87;;;;;;;;;;5069082;28;20278;-75
2022/04/28 07:27:23;;;;;;;5.67;3.97;;;;;;;;;;5066330;28;20223;-74
2022/04/28 07:29:51;;;;;;;4.33;3.93;;;;;;;;;;5074118;28;20234;-75
2022/04/28 07:32:20;;;;;;;4.30;3.90;;;;;;;;;;5069524;28;20238;-74
2022/04/28 07:34:48;;;;;;;5.73;4.37;;;;;;;;;;5072608;28;20226;-75
2022/04/28 07:37:17;;;;;;;11.33;3.73;;;;;;;;;;5070642;28;20276;-73
2022/04/28 07:39:45;;;;;;;9.33;4.53;;;;;;;;;;5071923;28;20233;-75
2022/04/28 07:42:13;;;;;;;6.07;4.50;;;;;;;;;;5064026;28;20244;-75
2022/04/28 07:44:41;;;;;;;4.27;3.87;;;;;;;;;;5069975;28;20625;-74
2022/04/28 07:47:09;;;;;;;9.43;4.57;;;;;;;;;;5066984;28;20231;-74
2022/04/28 07:49:37;;;;;;;6.00;3.80;;;;;;;;;;5069440;28;20230;-75
2022/04/28 07:52:07;;;;;;;5.80;4.20;;;;;;;;;;5067874;28;20206;-76
2022/04/28 07:54:38;;;;;;;4.77;4.27;;;;;;;;;;5071577;28;20218;-77
2022/04/28 07:57:07;;;;;;;5.00;4.27;;;;;;;;;;5070011;28;20952;-75
2022/04/28 07:59:34;;;;;;;6.57;4.90;;;;;;;;;;5072433;28;20266;-74
2022/04/28 08:02:04;;;;;;;4.77;4.23;;;;;;;;;;5072172;28;22176;-75
2022/04/28 08:04:33;;;;;;;4.67;3.80;;;;;;;;;;5074302;28;20201;-75
2022/04/28 08:07:01;;;;;;;4.97;4.30;;;;;;;;;;5069304;28;20222;-73
2022/04/28 08:09:30;;;;;;;15.17;5.83;;;;;;;;;;5075930;28;20251;-73
2022/04/28 08:12:06;;;;;;;7.63;4.60;;;;;;;;;;5073602;28;20206;-73
2022/04/28 08:14:53;;;;;;;4.87;4.33;;;;;;;;;;5072286;28;20273;-73
2022/04/28 08:17:22;;;;;;;4.87;4.40;;;;;;;;;;5069897;28;20238;-75
2022/04/28 08:19:50;;;;;;;5.60;4.87;;;;;;;;;;5072719;28;20203;-75
2022/04/28 08:22:24;;;;;;;5.63;4.77;;;;;;;;;;5077086;28;20285;-75
2022/04/28 08:24:52;;;;;;;6.10;4.60;;;;;;;;;;5077453;28;20210;-75
2022/04/28 08:27:25;;;;;;;4.20;3.80;;;;;;;;;;5075548;28;20219;-72
2022/04/28 08:29:53;;;;;;;5.30;4.57;;;;;;;;;;5070703;28;20285;-75
2022/04/28 08:32:21;;;;;;;5.10;4.60;;;;;;;;;;5070576;28;20289;-74
2022/04/28 08:34:49;;;;;;;6.87;4.93;;;;;;;;;;5070169;28;20258;-74
2022/04/28 08:37:17;;;;;;;5.33;4.77;;;;;;;;;;5070813;28;21123;-73
2022/04/28 08:39:45;;;;;;;5.27;4.40;;;;;;;;;;5071838;28;20225;-72
2022/04/28 08:42:15;;;;;;;8.63;4.50;;;;;;;;;;5068945;28;20234;-72
2022/04/28 08:44:45;;;;;;;7.60;4.87;;;;;;;;;;5073266;28;20225;-72
2022/04/28 08:47:14;;;;;;;6.87;4.17;;;;;;;;;;5068586;28;20261;-70
2022/04/28 08:49:43;;;;;;;4.70;4.20;;;;;;;;;;5069508;28;20257;-71
2022/04/28 08:52:12;;;;;;;5.10;3.93;;;;;;;;;;5068879;28;20261;-72
2022/04/28 08:54:40;;;;;;;5.60;4.00;;;;;;;;;;5069613;28;20242;-70
2022/04/28 08:57:08;;;;;;;10.13;4.97;;;;;;;;;;5073032;28;20215;-70
2022/04/28 08:59:36;;;;;;;5.80;3.90;;;;;;;;;;5070594;28;20293;-70
2022/04/28 09:02:06;;;;;;;5.80;4.07;;;;;;;;;;5067867;28;20309;-72
2022/04/28 09:04:34;;;;;;;5.20;4.20;;;;;;;;;;5067620;28;20209;-74
2022/04/28 09:07:03;;;;;;;8.10;5.97;;;;;;;;;;5067101;28;20218;-74
2022/04/28 09:09:31;;;;;;;5.87;4.10;;;;;;;;;;5069259;28;20623;-73
2022/04/28 09:12:00;;;;;;;5.23;4.73;;;;;;;;;;5071108;28;20633;-72
2022/04/28 09:14:28;;;;;;;6.63;4.27;;;;;;;;;;5067425;28;20266;-72
2022/04/28 09:16:59;;;;;;;5.63;4.47;;;;;;;;;;5065562;28;20285;-73
2022/04/28 09:19:30;;;;;;;5.53;4.27;;;;;;;;;;5067875;28;20202;-72
2022/04/28 09:22:00;;;;;;;4.63;4.13;;;;;;;;;;5073921;28;20206;-74
2022/04/28 09:24:29;;;;;;;4.20;3.80;;;;;;;;;;5069649;28;20226;-75
2022/04/28 09:26:57;;;;;;;5.87;4.67;;;;;;;;;;5072899;28;20282;-75
2022/04/28 09:29:29;;;;;;;6.40;4.80;;;;;;;;;;5075649;28;20198;-73
2022/04/28 09:31:57;;;;;;;7.73;4.67;;;;;;;;;;5075241;28;20616;-73
2022/04/28 09:34:48;;;;;;;5.00;4.20;;;;;;;;;;5071577;28;20228;-75
2022/04/28 09:37:17;;;;;;;7.47;4.30;;;;;;;;;;5067745;28;20337;-74
2022/04/28 09:42:39;;;;;;;5.27;3.90;;;;;;;;;;5070549;28;20682;-74
2022/04/28 09:45:08;;;;;;;4.40;4.00;;;;;;;;;;5071130;28;20653;-72
2022/04/28 09:47:37;;;;;;;6.07;4.40;;;;;;;;;;5071408;28;20230;-72
2022/04/28 09:50:14;;;;;;;6.97;4.50;;;;;;;;;;5069244;28;20230;-73
2022/04/28 09:52:43;;;;;;;4.90;4.43;;;;;;;;;;5070632;28;20236;-72
2022/04/28 09:55:15;;;;;;;5.87;4.20;;;;;;;;;;5069382;28;20314;-72
2022/04/28 09:57:44;;;;;;;6.97;4.83;;;;;;;;;;5065699;28;20269;-72
2022/04/28 10:00:12;;;;;;;13.93;5.63;;;;;;;;;;5069621;28;20285;-72
2022/04/28 10:02:41;;;;;;;5.27;4.77;;;;;;;;;;5070047;28;20230;-71
2022/04/28 10:05:10;;;;;;;5.93;4.93;;;;;;;;;;5070877;28;20202;-72
2022/04/28 10:07:39;;;;;;;4.67;4.23;;;;;;;;;;5069494;28;20280;-73
2022/04/28 10:10:08;;;;;;;6.43;4.90;;;;;;;;;;5069555;28;20262;-73
2022/04/28 10:12:36;;;;;;;10.40;4.63;;;;;;;;;;5065525;28;20233;-73
2022/04/28 10:15:05;;;;;;;8.80;6.10;;;;;;;;;;5069497;28;20295;-71
2022/04/28 10:17:35;;;;;;;5.43;4.80;;;;;;;;;;5066967;28;20202;-74
2022/04/28 10:20:04;;;;;;;7.07;5.33;;;;;;;;;;5068965;28;20238;-74
2022/04/28 10:22:51;;;;;;;5.30;4.73;;;;;;;;;;5070873;28;20209;-72
2022/04/28 10:33:46;;;;;;;5.63;3.43;;;;;;;;;;5074683;28;20237;-74
2022/04/28 10:36:17;;;;;;;4.93;3.90;;;;;;;;;;5070484;28;20262;-74
2022/04/28 10:39:00;;;;;;;4.47;4.07;;;;;;;;;;5062386;28;20633;-74
2022/04/28 10:41:30;;;;;;;5.07;3.50;;;;;;;;;;5061252;28;20217;-74
2022/04/28 10:43:58;;;;;;;5.57;3.70;;;;;;;;;;5072227;28;20206;-74
2022/04/28 10:46:30;;;;;;;5.60;4.07;;;;;;;;;;5068282;28;20266;-74
2022/04/28 10:49:00;;;;;;;7.60;3.87;;;;;;;;;;5065693;28;20221;-74
2022/04/28 10:51:31;;;;;;;5.50;3.33;;;;;;;;;;5067508;28;20198;-73
2022/04/28 10:54:05;;;;;;;4.13;3.33;;;;;;;;;;5072092;28;20198;-74
2022/04/28 10:56:54;;;;;;;5.00;4.03;;;;;;;;;;5066288;28;20658;-73
2022/04/28 10:59:34;;;;;;;4.87;3.50;;;;;;;;;;5072799;28;20657;-73
2022/04/28 11:02:23;;;;;;;5.27;3.97;;;;;;;;;;5068460;28;20257;-73
2022/04/28 11:04:52;;;;;;;4.77;4.17;;;;;;;;;;5064954;28;20215;-75
2022/04/28 11:07:24;;;;;;;5.90;3.90;;;;;;;;;;5067253;28;20241;-76
2022/04/28 11:09:55;;;;;;;6.40;3.57;;;;;;;;;;5066457;28;20202;-76
2022/04/28 11:12:25;;;;;;;4.77;3.83;;;;;;;;;;5072736;28;20657;-76
2022/04/28 11:15:00;;;;;;;4.83;3.80;;;;;;;;;;5073025;28;20230;-75
2022/04/28 11:17:29;;;;;;;5.93;3.93;;;;;;;;;;5063586;28;20776;-78
2022/04/28 11:19:58;;;;;;;5.77;4.40;;;;;;;;;;5068777;28;20241;-79
2022/04/28 11:22:28;;;;;;;6.73;3.70;;;;;;;;;;5071056;28;20226;-79
2022/04/28 11:24:56;;;;;;;5.27;3.47;;;;;;;;;;5061686;28;20632;-79
2022/04/28 11:27:25;;;;;;;5.27;3.00;;;;;;;;;;5070709;28;20291;-79
2022/04/28 11:29:56;;;;;;;3.63;3.30;;;;;;;;;;5072806;28;20233;-79
2022/04/28 11:32:26;;;;;;;3.67;2.80;;;;;;;;;;5069975;28;20287;-79
2022/04/28 11:34:56;;;;;;;5.67;3.20;;;;;;;;;;5074881;28;20203;-79
2022/04/28 11:37:26;;;;;;;6.33;3.63;;;;;;;;;;5072423;28;20254;-69
2022/04/28 11:39:55;;;;;;;3.87;3.57;;;;;;;;;;5066194;28;20220;-69
2022/04/28 11:42:45;;;;;;;5.73;3.73;;;;;;;;;;5070560;28;20206;-76
2022/04/28 11:45:14;;;;;;;10.37;4.07;;;;;;;;;;5070937;28;20234;-77
2022/04/28 11:47:45;;;;;;;4.27;3.80;;;;;;;;;;5073207;28;20210;-76
2022/04/28 11:50:21;;;;;;;4.40;4.00;;;;;;;;;;5071248;28;20236;-76
2022/04/28 11:52:58;;;;;;;5.07;3.70;;;;;;;;;;5075621;28;20623;-76
2022/04/28 11:55:27;;;;;;;4.43;3.80;;;;;;;;;;5067450;28;20300;-76
2022/04/28 11:57:55;;;;;;;4.27;3.87;;;;;;;;;;5075247;28;20636;-76
2022/04/28 12:00:25;;;;;;;4.80;4.30;;;;;;;;;;5068057;28;20206;-76
2022/04/28 12:02:55;;;;;;;6.60;3.77;;;;;;;;;;5070668;28;20230;-75
2022/04/28 12:05:25;;;;;;;5.10;2.97;;;;;;;;;;5071689;28;20717;-74
2022/04/28 12:07:53;;;;;;;6.03;3.87;;;;;;;;;;5072390;28;20194;-75
2022/04/28 12:15:57;;;;;;;3.60;3.30;;;;;;;;;;5072573;28;20272;-76
2022/04/28 12:21:21;;;;;;;3.97;3.57;;;;;;;;;;5071472;28;20222;-71
2022/04/28 12:23:50;;;;;;;3.60;3.27;;;;;;;;;;5070636;28;20198;-76
2022/04/28 12:26:21;;;;;;;3.90;3.50;;;;;;;;;;5069163;28;20325;-76
2022/04/28 12:28:49;;;;;;;3.73;2.87;;;;;;;;;;5067675;28;20281;-76
2022/04/28 12:31:26;;;;;;;8.00;3.30;;;;;;;;;;5071895;28;20252;-78
2022/04/28 12:34:14;;;;;;;3.93;3.20;;;;;;;;;;5067609;28;20217;-77
2022/04/28 12:36:46;;;;;;;3.87;3.50;;;;;;;;;;5068934;28;20249;-77
2022/04/28 12:39:14;;;;;;;4.23;3.17;;;;;;;;;;5076105;28;20282;-78
2022/04/28 12:41:43;;;;;;;3.63;3.00;;;;;;;;;;5068716;28;20222;-77
2022/04/28 12:44:11;;;;;;;3.03;2.73;;;;;;;;;;5075966;28;20206;-77
2022/04/28 12:46:43;;;;;;;8.27;3.07;;;;;;;;;;5067296;28;20257;-77
2022/04/28 12:49:11;;;;;;;4.37;3.23;;;;;;;;;;5069661;28;20198;-77
2022/04/28 12:51:44;;;;;;;4.00;2.87;;;;;;;;;;5070005;28;20230;-77
2022/04/28 12:54:13;;;;;;;7.07;2.90;;;;;;;;;;5069044;28;20233;-77
2022/04/28 12:56:43;;;;;;;8.33;2.90;;;;;;;;;;5075012;28;20265;-77
2022/04/28 12:59:14;;;;;;;3.63;2.80;;;;;;;;;;5077369;28;20211;-77
2022/04/28 13:01:43;;;;;;;3.40;3.00;;;;;;;;;;5066216;28;20239;-77
2022/04/28 13:04:12;;;;;;;2.60;2.40;;;;;;;;;;5066919;28;20202;-77
2022/04/28 13:06:40;;;;;;;3.47;3.00;;;;;;;;;;5071657;28;20318;-76
2022/04/28 13:09:10;;;;;;;2.43;2.23;;;;;;;;;;5071150;28;20281;-77
2022/04/28 13:11:39;;;;;;;2.90;2.60;;;;;;;;;;5073746;28;20233;-76
2022/04/28 13:14:08;;;;;;;2.67;2.47;;;;;;;;;;5076816;28;20230;-77
2022/04/28 13:16:37;;;;;;;6.03;2.67;;;;;;;;;;5072087;28;20309;-77
2022/04/28 13:19:05;;;;;;;2.40;2.20;;;;;;;;;;5069423;28;20222;-78
2022/04/28 13:21:34;;;;;;;3.40;2.73;;;;;;;;;;5072726;28;20234;-78
2022/04/28 13:24:02;;;;;;;4.27;2.47;;;;;;;;;;5070892;28;20294;-77
2022/04/28 13:26:31;;;;;;;2.40;2.20;;;;;;;;;;5072079;28;20219;-77
2022/04/28 13:29:00;;;;;;;2.40;2.20;;;;;;;;;;5075590;28;20222;-77
2022/04/28 13:31:28;;;;;;;2.97;2.23;;;;;;;;;;5072969;28;20206;-77
2022/04/28 13:33:56;;;;;;;3.77;2.33;;;;;;;;;;5073011;28;20202;-77
2022/04/28 13:36:25;;;;;;;3.20;2.37;;;;;;;;;;5075435;28;20222;-77
2022/04/28 13:38:53;;;;;;;2.83;2.63;;;;;;;;;;5071905;28;20226;-77
2022/04/28 13:41:28;;;;;;;2.37;2.17;;;;;;;;;;5064851;28;20213;-77
2022/04/28 13:43:57;;;;;;;2.30;2.10;;;;;;;;;;5064527;28;20203;-75
2022/04/28 13:46:25;;;;;;;2.80;2.60;;;;;;;;;;5070396;28;20269;-77
2022/04/28 13:48:54;;;;;;;2.33;2.07;;;;;;;;;;5070295;28;20198;-75
2022/04/28 13:51:21;;;;;;;1.93;1.83;;;;;;;;;;5070517;28;20206;-76
2022/04/28 13:53:49;;;;;;;2.47;2.10;;;;;;;;;;5070964;28;20233;-76
2022/04/28 13:56:17;;;;;;;2.13;1.93;;;;;;;;;;5068105;28;20261;-76
2022/04/28 13:58:46;;;;;;;1.70;1.60;;;;;;;;;;5074206;28;20229;-76
2022/04/28 14:01:15;;;;;;;1.87;1.77;;;;;;;;;;5072785;28;20233;-76
2022/04/28 14:03:43;;;;;;;2.13;1.93;;;;;;;;;;5074545;28;20612;-76
2022/04/28 14:06:12;;;;;;;2.93;2.73;;;;;;;;;;5068657;28;20226;-77
2022/04/28 14:08:40;;;;;;;1.93;1.83;;;;;;;;;;5070605;28;20236;-77
2022/04/28 14:11:08;;;;;;;2.07;1.87;;;;;;;;;;5069070;28;20678;-77
2022/04/28 14:13:36;;;;;;;1.80;1.60;;;;;;;;;;5070167;28;20289;-75
2022/04/28 14:16:05;;;;;;;2.53;1.87;;;;;;;;;;5074052;28;20305;-75
2022/04/28 14:18:34;;;;;;;1.67;1.57;;;;;;;;;;5075199;28;20233;-75
2022/04/28 14:21:03;;;;;;;1.40;1.33;;;;;;;;;;5068863;28;20231;-77
2022/04/28 14:23:31;;;;;;;1.70;1.60;;;;;;;;;;5069492;28;20226;-75
2022/04/28 14:25:59;;;;;;;3.70;1.30;;;;;;;;;;5074185;28;20218;-75
2022/04/28 14:28:27;;;;;;;1.70;1.60;;;;;;;;;;5074270;28;20223;-77
2022/04/28 14:30:55;;;;;;;2.23;1.43;;;;;;;;;;5070016;28;20289;-75
2022/04/28 14:33:44;;;;;;;1.70;1.60;;;;;;;;;;5068482;28;20202;-76
2022/04/28 14:36:12;;;;;;;1.80;1.70;;;;;;;;;;5069211;28;20306;-77
2022/04/28 14:38:40;;;;;;;1.57;1.47;;;;;;;;;;5069070;28;20260;-75
2022/04/28 14:41:08;;;;;;;4.97;2.20;;;;;;;;;;5073531;28;20281;-75
2022/04/28 14:43:36;;;;;;;1.60;1.50;;;;;;;;;;5072597;28;20202;-75
2022/04/28 14:46:04;;;;;;;1.80;1.70;;;;;;;;;;5069888;28;20651;-75
2022/04/28 14:52:19;;;;;;;2.77;1.73;;;;;;;;;;5067370;28;20285;-76
2022/04/28 14:54:09;;;;;;;1.60;1.50;;;;;;;;;;5069527;28;20272;-74
2022/04/28 14:56:37;;;;;;;1.90;1.80;;;;;;;;;;5067993;28;20258;-75
2022/04/28 14:59:04;;;;;;;1.83;1.63;;;;;;;;;;5075080;28;20289;-76
2022/04/28 15:01:32;;;;;;;1.80;1.70;;;;;;;;;;5071225;28;20290;-76
2022/04/28 15:04:01;;;;;;;2.03;1.70;;;;;;;;;;5074584;28;20202;-76
2022/04/28 15:06:31;;;;;;;4.27;2.10;;;;;;;;;;5072860;28;20583;-76
2022/04/28 15:08:59;;;;;;;1.83;1.70;;;;;;;;;;5068167;28;20282;-76
2022/04/28 15:11:28;;;;;;;4.90;2.10;;;;;;;;;;5076016;28;20245;-74
2022/04/28 15:13:56;;;;;;;2.40;1.50;;;;;;;;;;5076084;28;20229;-75
2022/04/28 15:16:24;;;;;;;2.10;1.70;;;;;;;;;;5068103;28;20357;-75
2022/04/28 15:18:52;;;;;;;1.93;1.80;;;;;;;;;;5074104;28;20251;-74
2022/04/28 15:21:20;;;;;;;2.07;1.87;;;;;;;;;;5072732;28;20290;-75
2022/04/28 15:23:49;;;;;;;2.20;1.60;;;;;;;;;;5074853;28;20225;-77
2022/04/28 15:26:18;;;;;;;2.97;1.80;;;;;;;;;;5073281;28;20246;-77
2022/04/28 15:28:48;;;;;;;2.83;2.00;;;;;;;;;;5071136;28;20627;-76
2022/04/28 15:31:16;;;;;;;2.47;1.67;;;;;;;;;;5074513;28;20217;-76
2022/04/28 15:33:45;;;;;;;2.10;1.77;;;;;;;;;;5078137;28;20209;-76
2022/04/28 15:36:14;;;;;;;4.03;1.90;;;;;;;;;;5073023;28;20257;-76
2022/04/28 15:38:42;;;;;;;1.70;1.60;;;;;;;;;;5074299;28;20305;-76